sensor_id;sensor_type;location;lat;lon;timestamp;pressure;altitude;pressure_sealevel;temperature;humidity
11987;BME280;6053;51.382;6.768;2023-04-01T00:01:17;98947.22;;;11.36;100.00
11987;BME280;6053;51.382;6.768;2023-04-01T00:03:45;98940.09;;;11.25;100.00
11987;BME280;6053;51.382;6.768;2023-04-01T00:06:16;98937.44;;;10.94;100.00
11987;BME280;6053;51.382;6.768;2023-04-01T00:08:47;98941.88;;;10.49;100.00
11987;BME280;6053;51.382;6.768;2023-04-01T00:11:16;98940.47;;;10.82;100.00
11987;BME280;6053;51.382;6.768;2023-04-01T00:13:47;98932.78;;;10.49;100.00
11987;BME280;6053;51.382;6.768;2023-04-01T00:16:15;98952.09;;;10.64;100.00
11987;BME280;6053;51.382;6.768;2023-04-01T00:18:49;98949.88;;;10.41;100.00
11987;BME280;6053;51.382;6.768;2023-04-01T00:21:19;98941.88;;;10.54;100.00
11987;BME280;6053;51.382;6.768;2023-04-01T00:23:50;98937.75;;;10.47;100.00
11987;BME280;6053;51.382;6.768;2023-04-01T00:26:20;98941.88;;;10.65;100.00
11987;BME280;6053;51.382;6.768;2023-04-01T00:28:49;98941.81;;;10.08;100.00
11987;BME280;6053;51.382;6.768;2023-04-01T00:31:18;98941.91;;;10.70;100.00
11987;BME280;6053;51.382;6.768;2023-04-01T00:33:47;98942.78;;;11.50;100.00
11987;BME280;6053;51.382;6.768;2023-04-01T00:36:17;98938.63;;;12.08;100.00
11987;BME280;6053;51.382;6.768;2023-04-01T00:38:46;98951.78;;;10.20;100.00
11987;BME280;6053;51.382;6.768;2023-04-01T00:41:17;98942.41;;;10.72;100.00
11987;BME280;6053;51.382;6.768;2023-04-01T00:43:48;98942.66;;;10.96;100.00
11987;BME280;6053;51.382;6.768;2023-04-01T00:46:17;98934.44;;;10.70;100.00
11987;BME280;6053;51.382;6.768;2023-04-01T00:48:50;98936.09;;;10.41;100.00
11987;BME280;6053;51.382;6.768;2023-04-01T00:51:22;98932.78;;;10.28;100.00
11987;BME280;6053;51.382;6.768;2023-04-01T00:53:55;98928.13;;;10.34;100.00
11987;BME280;6053;51.382;6.768;2023-04-01T00:56:30;98934.94;;;10.11;100.00
11987;BME280;6053;51.382;6.768;2023-04-01T00:59:02;98932.78;;;10.59;100.00
11987;BME280;6053;51.382;6.768;2023-04-01T01:01:35;98937.47;;;10.64;100.00
11987;BME280;6053;51.382;6.768;2023-04-01T01:04:04;98929.44;;;10.88;100.00
11987;BME280;6053;51.382;6.768;2023-04-01T01:06:44;98927.81;;;11.56;100.00
11987;BME280;6053;51.382;6.768;2023-04-01T01:09:31;98923.97;;;11.52;100.00
11987;BME280;6053;51.382;6.768;2023-04-01T01:12:11;98921.94;;;11.14;100.00
11987;BME280;6053;51.382;6.768;2023-04-01T01:14:54;98932.50;;;10.81;100.00
11987;BME280;6053;51.382;6.768;2023-04-01T01:17:35;98922.56;;;10.24;100.00
11987;BME280;6053;51.382;6.768;2023-04-01T01:20:56;98925.59;;;10.68;100.00
11987;BME280;6053;51.382;6.768;2023-04-01T01:27:00;98926.16;;;10.55;100.00
11987;BME280;6053;51.382;6.768;2023-04-01T01:29:58;98916.75;;;10.15;100.00
11987;BME280;6053;51.382;6.768;2023-04-01T01:33:01;98918.13;;;10.79;100.00
11987;BME280;6053;51.382;6.768;2023-04-01T01:35:38;98916.47;;;10.88;100.00
11987;BME280;6053;51.382;6.768;2023-04-01T01:38:12;98910.47;;;10.60;100.00
11987;BME280;6053;51.382;6.768;2023-04-01T01:40:46;98920.84;;;10.99;100.00
11987;BME280;6053;51.382;6.768;2023-04-01T01:43:24;98912.50;;;11.20;100.00
11987;BME280;6053;51.382;6.768;2023-04-01T01:45:55;98920.63;;;10.80;100.00
11987;BME280;6053;51.382;6.768;2023-04-01T01:48:27;98917.63;;;10.51;100.00
11987;BME280;6053;51.382;6.768;2023-04-01T01:50:58;98916.22;;;10.74;100.00
11987;BME280;6053;51.382;6.768;2023-04-01T01:53:26;98919.56;;;10.51;100.00
11987;BME280;6053;51.382;6.768;2023-04-01T01:55:55;98914.28;;;10.24;100.00
11987;BME280;6053;51.382;6.768;2023-04-01T01:58:27;98914.31;;;10.70;100.00
11987;BME280;6053;51.382;6.768;2023-04-01T02:01:00;98923.69;;;10.64;100.00
11987;BME280;6053;51.382;6.768;2023-04-01T02:03:34;98919.81;;;10.80;100.00
11987;BME280;6053;51.382;6.768;2023-04-01T02:06:08;98922.50;;;11.11;100.00
11987;BME280;6053;51.382;6.768;2023-04-01T02:08:42;98918.72;;;10.35;100.00
11987;BME280;6053;51.382;6.768;2023-04-01T02:11:16;98922.03;;;10.42;100.00
11987;BME280;6053;51.382;6.768;2023-04-01T02:13:50;98917.59;;;10.21;100.00
11987;BME280;6053;51.382;6.768;2023-04-01T02:16:23;98917.91;;;10.29;100.00
11987;BME280;6053;51.382;6.768;2023-04-01T02:18:56;98923.97;;;10.36;100.00
11987;BME280;6053;51.382;6.768;2023-04-01T02:21:31;98915.13;;;10.70;100.00
11987;BME280;6053;51.382;6.768;2023-04-01T02:24:03;98921.44;;;10.25;100.00
11987;BME280;6053;51.382;6.768;2023-04-01T02:26:34;98923.06;;;9.95;100.00
11987;BME280;6053;51.382;6.768;2023-04-01T02:29:06;98922.56;;;10.90;100.00
11987;BME280;6053;51.382;6.768;2023-04-01T02:31:37;98934.66;;;10.94;100.00
11987;BME280;6053;51.382;6.768;2023-04-01T02:34:05;98926.66;;;10.98;100.00
11987;BME280;6053;51.382;6.768;2023-04-01T02:36:36;98939.66;;;10.77;100.00
11987;BME280;6053;51.382;6.768;2023-04-01T02:39:06;98942.66;;;11.01;100.00
11987;BME280;6053;51.382;6.768;2023-04-01T02:41:39;98940.50;;;10.77;100.00
11987;BME280;6053;51.382;6.768;2023-04-01T02:44:09;98937.19;;;10.65;100.00
11987;BME280;6053;51.382;6.768;2023-04-01T02:46:37;98944.09;;;11.63;100.00
11987;BME280;6053;51.382;6.768;2023-04-01T02:49:06;98938.56;;;10.73;100.00
11987;BME280;6053;51.382;6.768;2023-04-01T02:51:36;98945.00;;;11.48;100.00
11987;BME280;6053;51.382;6.768;2023-04-01T02:54:04;98936.22;;;11.26;100.00
11987;BME280;6053;51.382;6.768;2023-04-01T02:56:33;98939.50;;;11.33;100.00
11987;BME280;6053;51.382;6.768;2023-04-01T02:59:01;98943.31;;;11.52;100.00
11987;BME280;6053;51.382;6.768;2023-04-01T03:01:29;98936.81;;;11.18;100.00
11987;BME280;6053;51.382;6.768;2023-04-01T03:03:58;98939.50;;;11.33;100.00
11987;BME280;6053;51.382;6.768;2023-04-01T03:06:26;98943.41;;;12.36;100.00
11987;BME280;6053;51.382;6.768;2023-04-01T03:08:56;98937.41;;;10.99;100.00
11987;BME280;6053;51.382;6.768;2023-04-01T03:11:24;98945.16;;;10.92;100.00
11987;BME280;6053;51.382;6.768;2023-04-01T03:13:53;98955.38;;;11.72;100.00
11987;BME280;6053;51.382;6.768;2023-04-01T03:16:21;98953.22;;;11.59;100.00
11987;BME280;6053;51.382;6.768;2023-04-01T03:18:50;98954.00;;;10.79;100.00
11987;BME280;6053;51.382;6.768;2023-04-01T03:21:21;98953.19;;;10.53;100.00
11987;BME280;6053;51.382;6.768;2023-04-01T03:23:50;98957.53;;;11.10;100.00
11987;BME280;6053;51.382;6.768;2023-04-01T03:26:20;98956.09;;;11.28;100.00
11987;BME280;6053;51.382;6.768;2023-04-01T03:28:48;98957.25;;;11.06;100.00
11987;BME280;6053;51.382;6.768;2023-04-01T03:31:17;98963.38;;;10.73;100.00
11987;BME280;6053;51.382;6.768;2023-04-01T03:33:48;98969.41;;;11.11;100.00
11987;BME280;6053;51.382;6.768;2023-04-01T03:36:17;98969.72;;;10.53;100.00
11987;BME280;6053;51.382;6.768;2023-04-01T03:38:45;98962.06;;;11.61;100.00
11987;BME280;6053;51.382;6.768;2023-04-01T03:41:15;98970.63;;;12.14;100.00
11987;BME280;6053;51.382;6.768;2023-04-01T03:43:45;98970.88;;;12.57;100.00
11987;BME280;6053;51.382;6.768;2023-04-01T03:46:17;98978.84;;;11.69;100.00
11987;BME280;6053;51.382;6.768;2023-04-01T03:48:46;98969.94;;;11.18;100.00
11987;BME280;6053;51.382;6.768;2023-04-01T03:51:15;98969.47;;;10.80;100.00
11987;BME280;6053;51.382;6.768;2023-04-01T03:53:43;98972.59;;;11.43;100.00
11987;BME280;6053;51.382;6.768;2023-04-01T03:56:11;98964.94;;;11.25;100.00
11987;BME280;6053;51.382;6.768;2023-04-01T03:58:40;98973.53;;;11.03;100.00
11987;BME280;6053;51.382;6.768;2023-04-01T04:01:18;98975.41;;;11.33;100.00
11987;BME280;6053;51.382;6.768;2023-04-01T04:03:48;98974.59;;;11.27;100.00
11987;BME280;6053;51.382;6.768;2023-04-01T04:06:18;98966.97;;;10.83;100.00
11987;BME280;6053;51.382;6.768;2023-04-01T04:08:47;98977.44;;;11.87;100.00
11987;BME280;6053;51.382;6.768;2023-04-01T04:11:16;98974.34;;;11.24;100.00
11987;BME280;6053;51.382;6.768;2023-04-01T04:13:44;98978.97;;;11.44;100.00
11987;BME280;6053;51.382;6.768;2023-04-01T04:16:16;98978.63;;;11.61;100.00
11987;BME280;6053;51.382;6.768;2023-04-01T04:18:45;98975.31;;;11.59;100.00
11987;BME280;6053;51.382;6.768;2023-04-01T04:21:14;98978.00;;;11.79;100.00
11987;BME280;6053;51.382;6.768;2023-04-01T04:23:43;98980.75;;;11.79;100.00
11987;BME280;6053;51.382;6.768;2023-04-01T04:26:13;98983.75;;;12.37;100.00
11987;BME280;6053;51.382;6.768;2023-04-01T04:28:42;98983.47;;;11.94;100.00
11987;BME280;6053;51.382;6.768;2023-04-01T04:31:11;98983.97;;;12.80;100.00
11987;BME280;6053;51.382;6.768;2023-04-01T04:33:41;98991.94;;;12.53;100.00
11987;BME280;6053;51.382;6.768;2023-04-01T04:36:09;98997.19;;;12.10;100.00
11987;BME280;6053;51.382;6.768;2023-04-01T04:38:37;98990.63;;;12.00;100.00
11987;BME280;6053;51.382;6.768;2023-04-01T04:41:09;98986.69;;;12.12;100.00
11987;BME280;6053;51.382;6.768;2023-04-01T04:43:39;98988.91;;;12.54;100.00
11987;BME280;6053;51.382;6.768;2023-04-01T04:46:08;98989.50;;;12.80;100.00
11987;BME280;6053;51.382;6.768;2023-04-01T04:48:37;98995.78;;;12.17;100.00
11987;BME280;6053;51.382;6.768;2023-04-01T04:51:06;98996.91;;;12.56;100.00
11987;BME280;6053;51.382;6.768;2023-04-01T04:53:35;98995.44;;;12.63;100.00
11987;BME280;6053;51.382;6.768;2023-04-01T04:56:03;98996.50;;;12.72;100.00
11987;BME280;6053;51.382;6.768;2023-04-01T04:58:31;99001.84;;;12.19;100.00
11987;BME280;6053;51.382;6.768;2023-04-01T05:01:06;99004.59;;;11.60;100.00
11987;BME280;6053;51.382;6.768;2023-04-01T05:03:35;99002.16;;;11.48;100.00
11987;BME280;6053;51.382;6.768;2023-04-01T05:06:06;98998.03;;;11.30;100.00
11987;BME280;6053;51.382;6.768;2023-04-01T05:08:35;99009.28;;;11.64;100.00
11987;BME280;6053;51.382;6.768;2023-04-01T05:11:09;99004.34;;;11.51;100.00
11987;BME280;6053;51.382;6.768;2023-04-01T05:13:40;99004.75;;;10.98;100.00
11987;BME280;6053;51.382;6.768;2023-04-01T05:16:09;99009.94;;;11.15;100.00
11987;BME280;6053;51.382;6.768;2023-04-01T05:18:39;99013.22;;;11.32;100.00
11987;BME280;6053;51.382;6.768;2023-04-01T05:21:10;99015.84;;;12.33;100.00
11987;BME280;6053;51.382;6.768;2023-04-01T05:23:39;99012.25;;;11.73;100.00
11987;BME280;6053;51.382;6.768;2023-04-01T05:26:10;99011.22;;;11.53;100.00
11987;BME280;6053;51.382;6.768;2023-04-01T05:28:39;99015.78;;;10.98;100.00
11987;BME280;6053;51.382;6.768;2023-04-01T05:31:08;99012.19;;;11.08;100.00
11987;BME280;6053;51.382;6.768;2023-04-01T05:33:37;99019.59;;;11.13;100.00
11987;BME280;6053;51.382;6.768;2023-04-01T05:36:09;99017.97;;;11.06;100.00
11987;BME280;6053;51.382;6.768;2023-04-01T05:38:38;99022.28;;;11.53;100.00
11987;BME280;6053;51.382;6.768;2023-04-01T05:41:06;99029.34;;;12.00;100.00
11987;BME280;6053;51.382;6.768;2023-04-01T05:43:36;99020.88;;;12.26;100.00
11987;BME280;6053;51.382;6.768;2023-04-01T05:46:04;99025.09;;;11.33;100.00
11987;BME280;6053;51.382;6.768;2023-04-01T05:48:33;99024.03;;;10.83;100.00
11987;BME280;6053;51.382;6.768;2023-04-01T05:51:02;99033.59;;;11.62;100.00
11987;BME280;6053;51.382;6.768;2023-04-01T05:53:32;99038.63;;;11.35;100.00
11987;BME280;6053;51.382;6.768;2023-04-01T05:56:03;99032.03;;;11.15;100.00
11987;BME280;6053;51.382;6.768;2023-04-01T05:58:31;99044.75;;;10.80;100.00
11987;BME280;6053;51.382;6.768;2023-04-01T06:01:02;99035.34;;;11.27;100.00
11987;BME280;6053;51.382;6.768;2023-04-01T06:03:38;99030.66;;;10.46;100.00
11987;BME280;6053;51.382;6.768;2023-04-01T06:06:14;99035.88;;;10.37;100.00
11987;BME280;6053;51.382;6.768;2023-04-01T06:08:44;99033.06;;;10.22;100.00
11987;BME280;6053;51.382;6.768;2023-04-01T06:11:24;99038.41;;;10.85;100.00
11987;BME280;6053;51.382;6.768;2023-04-01T06:14:11;99035.63;;;11.05;100.00
11987;BME280;6053;51.382;6.768;2023-04-01T06:17:01;99041.72;;;10.97;100.00
11987;BME280;6053;51.382;6.768;2023-04-01T06:19:41;99042.53;;;10.67;100.00
11987;BME280;6053;51.382;6.768;2023-04-01T06:22:43;99043.06;;;11.00;100.00
11987;BME280;6053;51.382;6.768;2023-04-01T06:25:42;99042.50;;;11.13;100.00
11987;BME280;6053;51.382;6.768;2023-04-01T06:29:08;99046.63;;;10.49;100.00
11987;BME280;6053;51.382;6.768;2023-04-01T06:31:56;99048.31;;;10.55;100.00
11987;BME280;6053;51.382;6.768;2023-04-01T06:34:50;99055.47;;;10.46;100.00
11987;BME280;6053;51.382;6.768;2023-04-01T06:37:50;99054.94;;;10.95;100.00
11987;BME280;6053;51.382;6.768;2023-04-01T06:41:13;99054.66;;;11.12;100.00
11987;BME280;6053;51.382;6.768;2023-04-01T06:43:56;99065.31;;;11.85;100.00
11987;BME280;6053;51.382;6.768;2023-04-01T06:46:36;99062.66;;;11.19;100.00
11987;BME280;6053;51.382;6.768;2023-04-01T06:49:29;99059.50;;;10.13;100.00
11987;BME280;6053;51.382;6.768;2023-04-01T06:52:07;99072.59;;;11.40;100.00
11987;BME280;6053;51.382;6.768;2023-04-01T06:54:44;99065.69;;;10.51;100.00
11987;BME280;6053;51.382;6.768;2023-04-01T06:57:23;99073.91;;;11.58;100.00
11987;BME280;6053;51.382;6.768;2023-04-01T06:59:58;99071.75;;;11.35;100.00
11987;BME280;6053;51.382;6.768;2023-04-01T07:02:36;99075.09;;;11.11;100.00
11987;BME280;6053;51.382;6.768;2023-04-01T07:05:07;99073.72;;;10.78;100.00
11987;BME280;6053;51.382;6.768;2023-04-01T07:07:41;99079.53;;;11.07;100.00
11987;BME280;6053;51.382;6.768;2023-04-01T07:10:16;99079.75;;;11.41;100.00
11987;BME280;6053;51.382;6.768;2023-04-01T07:12:51;99083.91;;;11.28;100.00
11987;BME280;6053;51.382;6.768;2023-04-01T07:15:28;99089.44;;;11.13;100.00
11987;BME280;6053;51.382;6.768;2023-04-01T07:18:05;99081.41;;;10.60;100.00
11987;BME280;6053;51.382;6.768;2023-04-01T07:20:36;99087.88;;;10.13;100.00
11987;BME280;6053;51.382;6.768;2023-04-01T07:23:12;99091.34;;;10.72;100.00
11987;BME280;6053;51.382;6.768;2023-04-01T07:25:45;99093.84;;;10.73;100.00
11987;BME280;6053;51.382;6.768;2023-04-01T07:28:16;99094.41;;;11.06;100.00
11987;BME280;6053;51.382;6.768;2023-04-01T07:30:58;99099.78;;;10.29;100.00
11987;BME280;6053;51.382;6.768;2023-04-01T07:33:36;99097.69;;;10.67;100.00
11987;BME280;6053;51.382;6.768;2023-04-01T07:36:13;99103.22;;;10.82;100.00
11987;BME280;6053;51.382;6.768;2023-04-01T07:38:55;99101.72;;;10.29;100.00
11987;BME280;6053;51.382;6.768;2023-04-01T07:41:36;99110.34;;;11.60;100.00
11987;BME280;6053;51.382;6.768;2023-04-01T07:44:15;99117.47;;;11.97;100.00
11987;BME280;6053;51.382;6.768;2023-04-01T07:46:59;99110.94;;;10.96;100.00
11987;BME280;6053;51.382;6.768;2023-04-01T07:49:39;99121.09;;;10.59;100.00
11987;BME280;6053;51.382;6.768;2023-04-01T07:52:14;99118.88;;;10.46;100.00
11987;BME280;6053;51.382;6.768;2023-04-01T07:54:51;99141.88;;;11.54;100.00
11987;BME280;6053;51.382;6.768;2023-04-01T07:57:29;99135.78;;;10.96;100.00
11987;BME280;6053;51.382;6.768;2023-04-01T08:00:09;99129.44;;;11.05;100.00
11987;BME280;6053;51.382;6.768;2023-04-01T08:02:56;99149.56;;;10.12;100.00
11987;BME280;6053;51.382;6.768;2023-04-01T08:05:40;99144.63;;;11.03;100.00
11987;BME280;6053;51.382;6.768;2023-04-01T08:08:18;99142.13;;;10.96;100.00
11987;BME280;6053;51.382;6.768;2023-04-01T08:10:52;99150.38;;;11.78;100.00
11987;BME280;6053;51.382;6.768;2023-04-01T08:13:33;99161.53;;;12.43;100.00
11987;BME280;6053;51.382;6.768;2023-04-01T08:16:14;99151.47;;;12.08;100.00
11987;BME280;6053;51.382;6.768;2023-04-01T08:18:53;99157.31;;;11.91;100.00
11987;BME280;6053;51.382;6.768;2023-04-01T08:21:31;99159.28;;;11.24;100.00
11987;BME280;6053;51.382;6.768;2023-04-01T08:24:08;99165.31;;;11.92;100.00
11987;BME280;6053;51.382;6.768;2023-04-01T08:26:42;99175.28;;;11.37;100.00
11987;BME280;6053;51.382;6.768;2023-04-01T08:29:16;99174.97;;;11.69;100.00
11987;BME280;6053;51.382;6.768;2023-04-01T08:31:53;99179.38;;;12.01;100.00
11987;BME280;6053;51.382;6.768;2023-04-01T08:34:26;99186.59;;;11.87;100.00
11987;BME280;6053;51.382;6.768;2023-04-01T08:37:01;99188.50;;;11.20;100.00
11987;BME280;6053;51.382;6.768;2023-04-01T08:39:36;99194.34;;;11.49;100.00
11987;BME280;6053;51.382;6.768;2023-04-01T08:49:03;99195.84;;;10.58;100.00
11987;BME280;6053;51.382;6.768;2023-04-01T08:52:02;99199.28;;;11.21;100.00
11987;BME280;6053;51.382;6.768;2023-04-01T08:55:21;99205.94;;;11.87;100.00
11987;BME280;6053;51.382;6.768;2023-04-01T08:58:11;99208.13;;;11.74;100.00
11987;BME280;6053;51.382;6.768;2023-04-01T09:00:49;99209.47;;;11.05;100.00
11987;BME280;6053;51.382;6.768;2023-04-01T09:03:41;99211.06;;;10.76;100.00
11987;BME280;6053;51.382;6.768;2023-04-01T09:06:29;99208.09;;;10.98;100.00
11987;BME280;6053;51.382;6.768;2023-04-01T09:12:55;99215.50;;;10.82;100.00
11987;BME280;6053;51.382;6.768;2023-04-01T09:16:13;99218.94;;;10.42;100.00
11987;BME280;6053;51.382;6.768;2023-04-01T09:19:24;99226.59;;;11.07;100.00
11987;BME280;6053;51.382;6.768;2023-04-01T09:22:17;99227.19;;;11.55;100.00
11987;BME280;6053;51.382;6.768;2023-04-01T09:25:32;99235.22;;;11.67;100.00
11987;BME280;6053;51.382;6.768;2023-04-01T09:28:10;99241.25;;;12.15;100.00
11987;BME280;6053;51.382;6.768;2023-04-01T09:31:18;99242.66;;;12.02;100.00
11987;BME280;6053;51.382;6.768;2023-04-01T09:37:03;99248.72;;;11.48;100.00
11987;BME280;6053;51.382;6.768;2023-04-01T09:39:38;99255.00;;;12.46;100.00
11987;BME280;6053;51.382;6.768;2023-04-01T09:42:33;99252.59;;;11.37;100.00
11987;BME280;6053;51.382;6.768;2023-04-01T09:45:21;99251.47;;;11.33;100.00
11987;BME280;6053;51.382;6.768;2023-04-01T09:48:05;99252.00;;;11.15;100.00
11987;BME280;6053;51.382;6.768;2023-04-01T09:50:46;99251.16;;;11.19;100.00
11987;BME280;6053;51.382;6.768;2023-04-01T10:00:10;99269.47;;;12.07;100.00
11987;BME280;6053;51.382;6.768;2023-04-01T10:03:24;99269.41;;;11.20;100.00
11987;BME280;6053;51.382;6.768;2023-04-01T10:06:54;99268.34;;;11.52;100.00
11987;BME280;6053;51.382;6.768;2023-04-01T10:13:11;99283.53;;;10.61;100.00
11987;BME280;6053;51.382;6.768;2023-04-01T10:16:34;99281.69;;;10.77;100.00
11987;BME280;6053;51.382;6.768;2023-04-01T10:19:42;99284.41;;;10.72;100.00
11987;BME280;6053;51.382;6.768;2023-04-01T10:22:32;99289.56;;;11.26;100.00
11987;BME280;6053;51.382;6.768;2023-04-01T10:25:23;99286.72;;;10.90;100.00
11987;BME280;6053;51.382;6.768;2023-04-01T10:28:51;99288.94;;;10.98;100.00
11987;BME280;6053;51.382;6.768;2023-04-01T10:32:11;99294.59;;;11.54;100.00
11987;BME280;6053;51.382;6.768;2023-04-01T10:42:10;99312.03;;;10.77;100.00
11987;BME280;6053;51.382;6.768;2023-04-01T10:48:21;99303.88;;;11.13;100.00
11987;BME280;6053;51.382;6.768;2023-04-01T10:51:16;99303.53;;;10.94;100.00
11987;BME280;6053;51.382;6.768;2023-04-01T10:54:17;99320.00;;;11.72;100.00
11987;BME280;6053;51.382;6.768;2023-04-01T10:56:55;99318.63;;;11.74;100.00
11987;BME280;6053;51.382;6.768;2023-04-01T11:00:26;99317.47;;;11.40;100.00
11987;BME280;6053;51.382;6.768;2023-04-01T11:16:37;99332.72;;;12.55;100.00
11987;BME280;6053;51.382;6.768;2023-04-01T11:20:02;99338.38;;;12.99;100.00
11987;BME280;6053;51.382;6.768;2023-04-01T11:26:06;99350.41;;;11.82;100.00
11987;BME280;6053;51.382;6.768;2023-04-01T11:29:18;99342.00;;;11.26;100.00
11987;BME280;6053;51.382;6.768;2023-04-01T11:31:58;99350.19;;;12.24;100.00
11987;BME280;6053;51.382;6.768;2023-04-01T11:34:56;99345.06;;;11.35;100.00
11987;BME280;6053;51.382;6.768;2023-04-01T11:37:37;99347.88;;;11.45;100.00
11987;BME280;6053;51.382;6.768;2023-04-01T11:40:18;99353.19;;;11.77;100.00
11987;BME280;6053;51.382;6.768;2023-04-01T11:42:55;99361.63;;;11.29;100.00
11987;BME280;6053;51.382;6.768;2023-04-01T11:45:36;99366.28;;;11.14;100.00
11987;BME280;6053;51.382;6.768;2023-04-01T11:48:30;99364.34;;;11.19;100.00
11987;BME280;6053;51.382;6.768;2023-04-01T11:51:53;99368.41;;;12.36;100.00
11987;BME280;6053;51.382;6.768;2023-04-01T11:54:37;99377.47;;;11.80;100.00
11987;BME280;6053;51.382;6.768;2023-04-01T11:57:44;99370.47;;;11.37;100.00
11987;BME280;6053;51.382;6.768;2023-04-01T12:00:54;99383.00;;;11.65;100.00
11987;BME280;6053;51.382;6.768;2023-04-01T12:07:02;99402.66;;;11.05;100.00
11987;BME280;6053;51.382;6.768;2023-04-01T12:09:41;99396.59;;;11.03;100.00
11987;BME280;6053;51.382;6.768;2023-04-01T12:12:23;99391.66;;;11.11;100.00
11987;BME280;6053;51.382;6.768;2023-04-01T12:15:10;99410.13;;;11.10;100.00
11987;BME280;6053;51.382;6.768;2023-04-01T12:17:49;99407.19;;;11.32;100.00
11987;BME280;6053;51.382;6.768;2023-04-01T12:20:34;99408.13;;;11.73;100.00
11987;BME280;6053;51.382;6.768;2023-04-01T12:23:24;99410.59;;;11.60;100.00
11987;BME280;6053;51.382;6.768;2023-04-01T12:26:10;99415.41;;;12.05;100.00
11987;BME280;6053;51.382;6.768;2023-04-01T12:28:59;99423.44;;;12.32;100.00
11987;BME280;6053;51.382;6.768;2023-04-01T12:31:42;99425.09;;;12.54;100.00
11987;BME280;6053;51.382;6.768;2023-04-01T12:34:50;99418.03;;;11.54;100.00
11987;BME280;6053;51.382;6.768;2023-04-01T12:37:36;99432.75;;;11.12;100.00
11987;BME280;6053;51.382;6.768;2023-04-01T12:40:28;99437.72;;;11.83;100.00
11987;BME280;6053;51.382;6.768;2023-04-01T12:43:19;99442.09;;;11.64;100.00
11987;BME280;6053;51.382;6.768;2023-04-01T12:45:57;99442.50;;;12.23;100.00
11987;BME280;6053;51.382;6.768;2023-04-01T12:49:16;99442.25;;;12.35;100.00
11987;BME280;6053;51.382;6.768;2023-04-01T12:52:07;99450.47;;;11.89;100.00
11987;BME280;6053;51.382;6.768;2023-04-01T12:58:40;99466.03;;;12.67;100.00
11987;BME280;6053;51.382;6.768;2023-04-01T13:07:41;99464.22;;;11.11;100.00
11987;BME280;6053;51.382;6.768;2023-04-01T13:10:38;99463.69;;;11.82;100.00
11987;BME280;6053;51.382;6.768;2023-04-01T13:16:15;99480.81;;;10.74;100.00
11987;BME280;6053;51.382;6.768;2023-04-01T13:18:56;99484.78;;;10.88;100.00
11987;BME280;6053;51.382;6.768;2023-04-01T13:21:34;99484.09;;;11.13;100.00
11987;BME280;6053;51.382;6.768;2023-04-01T13:24:17;99485.19;;;11.12;100.00
11987;BME280;6053;51.382;6.768;2023-04-01T13:26:58;99492.59;;;11.01;100.00
11987;BME280;6053;51.382;6.768;2023-04-01T13:29:34;99490.75;;;11.17;100.00
11987;BME280;6053;51.382;6.768;2023-04-01T13:35:23;99492.66;;;11.69;100.00
11987;BME280;6053;51.382;6.768;2023-04-01T13:38:32;99503.28;;;11.35;100.00
11987;BME280;6053;51.382;6.768;2023-04-01T13:41:18;99500.41;;;11.67;100.00
11987;BME280;6053;51.382;6.768;2023-04-01T13:43:54;99500.47;;;11.25;100.00
11987;BME280;6053;51.382;6.768;2023-04-01T13:46:39;99503.56;;;11.91;100.00
11987;BME280;6053;51.382;6.768;2023-04-01T13:49:34;99507.94;;;11.29;100.00
11987;BME280;6053;51.382;6.768;2023-04-01T13:52:52;99500.75;;;11.28;100.00
11987;BME280;6053;51.382;6.768;2023-04-01T14:01:58;99504.09;;;11.36;100.00
11987;BME280;6053;51.382;6.768;2023-04-01T14:04:46;99511.09;;;11.53;100.00
11987;BME280;6053;51.382;6.768;2023-04-01T14:07:37;99515.78;;;11.53;100.00
11987;BME280;6053;51.382;6.768;2023-04-01T14:10:18;99519.84;;;10.93;100.00
11987;BME280;6053;51.382;6.768;2023-04-01T14:12:57;99526.25;;;11.46;100.00
11987;BME280;6053;51.382;6.768;2023-04-01T14:15:39;99530.69;;;11.52;100.00
11987;BME280;6053;51.382;6.768;2023-04-01T14:18:32;99527.66;;;11.48;100.00
11987;BME280;6053;51.382;6.768;2023-04-01T14:21:20;99533.16;;;12.01;100.00
11987;BME280;6053;51.382;6.768;2023-04-01T14:24:21;99539.44;;;11.86;100.00
11987;BME280;6053;51.382;6.768;2023-04-01T14:27:16;99549.47;;;11.97;100.00
11987;BME280;6053;51.382;6.768;2023-04-01T14:29:58;99544.31;;;12.47;100.00
11987;BME280;6053;51.382;6.768;2023-04-01T14:32:44;99556.63;;;12.03;100.00
11987;BME280;6053;51.382;6.768;2023-04-01T14:35:32;99552.44;;;11.38;100.00
11987;BME280;6053;51.382;6.768;2023-04-01T14:38:29;99555.56;;;12.05;100.00
11987;BME280;6053;51.382;6.768;2023-04-01T14:41:15;99559.44;;;12.14;100.00
11987;BME280;6053;51.382;6.768;2023-04-01T14:47:28;99570.22;;;12.05;100.00
11987;BME280;6053;51.382;6.768;2023-04-01T14:50:09;99577.59;;;11.89;100.00
11987;BME280;6053;51.382;6.768;2023-04-01T14:52:43;99576.66;;;11.73;100.00
11987;BME280;6053;51.382;6.768;2023-04-01T14:55:29;99577.75;;;12.25;100.00
11987;BME280;6053;51.382;6.768;2023-04-01T14:58:09;99578.03;;;12.39;100.00
11987;BME280;6053;51.382;6.768;2023-04-01T15:00:49;99579.16;;;12.53;100.00
11987;BME280;6053;51.382;6.768;2023-04-01T15:03:26;99581.72;;;12.75;100.00
11987;BME280;6053;51.382;6.768;2023-04-01T15:06:31;99582.84;;;11.86;100.00
11987;BME280;6053;51.382;6.768;2023-04-01T15:09:09;99591.28;;;11.26;100.00
11987;BME280;6053;51.382;6.768;2023-04-01T15:11:52;99595.59;;;11.12;100.00
11987;BME280;6053;51.382;6.768;2023-04-01T15:14:44;99596.34;;;11.02;100.00
11987;BME280;6053;51.382;6.768;2023-04-01T15:17:40;99602.75;;;11.88;100.00
11987;BME280;6053;51.382;6.768;2023-04-01T15:20:34;99607.47;;;11.92;100.00
11987;BME280;6053;51.382;6.768;2023-04-01T15:23:26;99608.63;;;12.07;100.00
11987;BME280;6053;51.382;6.768;2023-04-01T15:26:19;99604.13;;;12.79;100.00
11987;BME280;6053;51.382;6.768;2023-04-01T15:29:11;99616.19;;;11.74;100.00
11987;BME280;6053;51.382;6.768;2023-04-01T15:31:51;99613.47;;;12.47;100.00
11987;BME280;6053;51.382;6.768;2023-04-01T15:34:34;99612.31;;;11.80;100.00